createdAt,value
2022-10-30T00:02:25.915Z,4.95
2022-10-30T00:04:53.481Z,3.72
2022-10-30T00:07:20.622Z,4.47
2022-10-30T00:09:47.828Z,4.57
2022-10-30T00:12:15.246Z,5.00
2022-10-30T00:14:42.456Z,4.47
2022-10-30T00:17:09.783Z,5.10
2022-10-30T00:19:37.142Z,4.20
2022-10-30T00:24:30.971Z,5.40
2022-10-30T00:27:16.863Z,4.65
2022-10-30T00:29:44.768Z,4.55
2022-10-30T00:32:11.960Z,4.10
2022-10-30T00:34:39.187Z,4.78
2022-10-30T00:37:08.446Z,4.38
2022-10-30T00:39:53.844Z,4.20
2022-10-30T00:42:21.256Z,5.50
2022-10-30T00:44:50.192Z,4.55
2022-10-30T00:47:23.869Z,4.55
2022-10-30T00:50:09.509Z,4.80
2022-10-30T00:52:48.256Z,5.40
2022-10-30T00:55:34.479Z,5.10
2022-10-30T00:58:26.593Z,4.63
2022-10-30T01:01:17.981Z,4.88
2022-10-30T01:03:46.755Z,4.82
2022-10-30T01:06:16.901Z,5.40
2022-10-30T01:08:45.157Z,4.40
2022-10-30T01:11:31.841Z,4.85
2022-10-30T01:14:04.324Z,4.68
2022-10-30T01:16:43.001Z,5.03
2022-10-30T01:19:16.974Z,5.20
2022-10-30T01:22:23.184Z,5.03
2022-10-30T01:25:03.359Z,5.43
2022-10-30T01:27:39.484Z,5.72
2022-10-30T01:30:46.351Z,6.27
2022-10-30T01:33:37.864Z,5.55
2022-10-30T01:36:22.775Z,6.15
2022-10-30T01:39:22.565Z,5.70
2022-10-30T01:41:50.694Z,5.65
2022-10-30T01:44:37.298Z,5.78
2022-10-30T01:47:10.268Z,5.95
2022-10-30T01:49:40.397Z,6.10
2022-10-30T01:52:28.634Z,5.55
2022-10-30T01:55:26.553Z,5.82
2022-10-30T01:58:21.725Z,6.38
2022-10-30T02:01:10.571Z,6.50
2022-10-30T02:03:57.306Z,5.68
2022-10-30T02:06:45.388Z,5.15
2022-10-30T02:09:31.776Z,6.18
2022-10-30T02:12:00.376Z,5.38
2022-10-30T02:14:32.989Z,7.25
2022-10-30T02:17:03.915Z,6.43
2022-10-30T02:19:31.214Z,6.75
2022-10-30T02:21:58.735Z,5.53
2022-10-30T02:24:28.912Z,6.47
2022-10-30T02:26:56.177Z,6.53
2022-10-30T02:29:23.452Z,6.25
2022-10-30T02:31:51.099Z,6.25
2022-10-30T02:34:18.382Z,5.88
2022-10-30T02:36:45.797Z,5.82
2022-10-30T02:39:13.201Z,6.25
2022-10-30T02:41:40.475Z,5.90
2022-10-30T02:44:26.009Z,5.88
2022-10-30T02:47:11.625Z,5.63
2022-10-30T02:49:39.149Z,5.85
2022-10-30T02:52:08.394Z,5.90
2022-10-30T02:54:36.210Z,5.63
2022-10-30T02:57:21.733Z,6.20
2022-10-30T02:59:49.151Z,6.03
2022-10-30T03:02:34.939Z,5.90
2022-10-30T03:05:02.493Z,6.07
2022-10-30T03:07:29.732Z,6.10
2022-10-30T03:10:16.089Z,7.82
2022-10-30T03:12:43.559Z,6.40
2022-10-30T03:15:11.261Z,5.80
2022-10-30T03:17:38.477Z,6.80
2022-10-30T03:20:06.453Z,6.50
2022-10-30T03:22:52.214Z,7.05
2022-10-30T03:25:23.800Z,6.88
2022-10-30T03:28:13.725Z,6.40
2022-10-30T03:31:01.870Z,7.85
2022-10-30T03:33:29.965Z,6.85
2022-10-30T03:35:58.056Z,7.03
2022-10-30T03:38:25.933Z,7.15
2022-10-30T03:40:53.329Z,7.18
2022-10-30T03:43:20.965Z,7.38
2022-10-30T03:45:53.336Z,7.28
2022-10-30T03:48:23.143Z,8.00
2022-10-30T03:50:52.861Z,7.80
2022-10-30T03:53:20.872Z,7.88
2022-10-30T03:55:48.288Z,6.90
2022-10-30T03:58:16.314Z,7.90
2022-10-30T04:00:43.984Z,7.57
2022-10-30T04:03:12.052Z,7.70
2022-10-30T04:05:42.934Z,7.45
2022-10-30T04:08:14.676Z,7.07
2022-10-30T04:11:00.629Z,7.72
2022-10-30T04:13:28.078Z,7.43
2022-10-30T04:15:58.147Z,7.43
2022-10-30T04:18:26.867Z,8.13
2022-10-30T04:20:55.387Z,8.60
2022-10-30T04:23:23.109Z,8.13
2022-10-30T04:25:50.389Z,9.15
2022-10-30T04:28:37.384Z,8.52
2022-10-30T04:31:23.419Z,9.10
2022-10-30T04:33:51.633Z,8.77
2022-10-30T04:36:37.283Z,8.30
2022-10-30T04:39:05.201Z,9.13
2022-10-30T04:41:34.255Z,9.70
2022-10-30T04:44:25.484Z,9.07
2022-10-30T04:46:55.652Z,10.00
2022-10-30T04:49:22.916Z,9.93
2022-10-30T04:51:50.281Z,10.70
2022-10-30T04:54:18.546Z,10.13
2022-10-30T04:56:45.803Z,11.25
2022-10-30T04:59:12.985Z,11.10
2022-10-30T05:01:40.438Z,10.00
2022-10-30T05:04:08.326Z,10.48
2022-10-30T05:06:36.664Z,11.15
2022-10-30T05:09:04.186Z,10.10
2022-10-30T05:11:41.592Z,12.45
2022-10-30T05:14:08.830Z,10.65
2022-10-30T05:16:37.658Z,10.85
2022-10-30T05:19:05.794Z,12.15
2022-10-30T05:21:34.635Z,11.30
2022-10-30T05:24:20.335Z,16.25
2022-10-30T05:27:06.466Z,14.13
2022-10-30T05:29:35.084Z,12.57
2022-10-30T05:32:02.372Z,11.35
2022-10-30T05:34:38.899Z,11.93
2022-10-30T05:37:06.125Z,15.98
2022-10-30T05:39:33.376Z,16.13
2022-10-30T05:42:01.044Z,15.85
2022-10-30T05:45:01.036Z,14.65
2022-10-30T05:47:27.335Z,12.60
2022-10-30T05:49:56.828Z,11.75
2022-10-30T05:52:26.535Z,12.02
2022-10-30T05:54:53.702Z,11.85
2022-10-30T05:57:33.301Z,12.13
2022-10-30T06:00:01.874Z,11.20
2022-10-30T06:02:30.802Z,12.13
2022-10-30T06:05:16.447Z,11.68
2022-10-30T06:07:44.092Z,10.55
2022-10-30T06:10:11.346Z,11.18
2022-10-30T06:13:06.517Z,10.85
2022-10-30T06:16:00.400Z,10.52
2022-10-30T06:18:40.871Z,10.73
2022-10-30T06:21:29.926Z,11.05
2022-10-30T06:24:17.632Z,11.32
2022-10-30T06:27:05.230Z,13.20
2022-10-30T06:29:32.567Z,13.73
2022-10-30T06:32:03.817Z,12.20
2022-10-30T06:34:52.245Z,12.05
2022-10-30T06:37:19.831Z,11.65
2022-10-30T06:39:47.612Z,12.27
2022-10-30T06:42:48.292Z,12.60
2022-10-30T06:45:35.829Z,11.68
2022-10-30T06:48:21.537Z,12.50
2022-10-30T06:50:57.586Z,12.02
2022-10-30T06:53:27.732Z,11.30
2022-10-30T06:56:04.386Z,12.23
2022-10-30T06:59:13.492Z,10.82
2022-10-30T07:02:01.013Z,11.98
2022-10-30T07:04:40.007Z,11.65
2022-10-30T07:07:09.694Z,12.02
2022-10-30T07:09:55.772Z,11.35
2022-10-30T07:12:36.431Z,11.40
2022-10-30T07:15:36.693Z,10.57
2022-10-30T07:18:19.271Z,10.43
2022-10-30T07:20:46.965Z,10.90
2022-10-30T07:23:32.737Z,10.15
2022-10-30T07:26:16.008Z,10.05
2022-10-30T07:29:05.093Z,9.05
2022-10-30T07:31:57.613Z,9.70
2022-10-30T07:34:49.462Z,9.70
2022-10-30T07:37:40.612Z,8.70
2022-10-30T07:40:12.963Z,9.23
2022-10-30T07:43:06.939Z,11.05
2022-10-30T07:45:36.907Z,9.60
2022-10-30T07:48:22.741Z,9.23
2022-10-30T07:51:18.778Z,9.35
2022-10-30T07:53:46.228Z,9.85
2022-10-30T07:56:13.530Z,8.45
2022-10-30T07:58:53.329Z,9.18
2022-10-30T08:01:52.752Z,8.00
2022-10-30T08:04:31.627Z,8.70
2022-10-30T08:07:07.147Z,8.63
2022-10-30T08:09:52.894Z,7.60
2022-10-30T08:12:20.460Z,7.22
2022-10-30T08:14:47.785Z,7.53
2022-10-30T08:17:15.626Z,8.30
2022-10-30T08:19:43.628Z,7.75
2022-10-30T08:22:11.919Z,8.98
2022-10-30T08:24:40.107Z,7.07
2022-10-30T08:27:07.488Z,8.30
2022-10-30T08:29:35.897Z,6.95
2022-10-30T08:32:21.791Z,7.82
2022-10-30T08:35:08.161Z,6.30
2022-10-30T08:37:35.700Z,7.28
2022-10-30T08:40:21.077Z,7.13
2022-10-30T08:42:57.806Z,6.60
2022-10-30T08:45:29.989Z,6.65
2022-10-30T08:48:10.160Z,6.93
2022-10-30T08:50:39.713Z,6.78
2022-10-30T08:53:11.514Z,6.85
2022-10-30T08:55:39.158Z,6.70
2022-10-30T08:58:13.402Z,6.60
2022-10-30T09:00:42.911Z,6.53
2022-10-30T09:03:31.171Z,5.78
2022-10-30T09:06:18.918Z,6.40
2022-10-30T09:09:12.153Z,6.22
2022-10-30T09:11:49.051Z,5.53
2022-10-30T09:14:35.074Z,5.55
2022-10-30T09:17:02.624Z,4.82
2022-10-30T09:19:30.961Z,5.85
2022-10-30T09:22:17.576Z,6.47
2022-10-30T09:24:45.134Z,6.00
2022-10-30T09:27:42.009Z,5.80
2022-10-30T09:30:12.556Z,5.80
2022-10-30T09:32:44.143Z,5.40
2022-10-30T09:35:35.857Z,5.30
2022-10-30T09:38:21.709Z,5.15
2022-10-30T09:41:30.715Z,4.65
2022-10-30T09:44:19.179Z,4.35
2022-10-30T09:47:22.383Z,4.13
2022-10-30T09:50:29.514Z,4.28
2022-10-30T09:53:18.534Z,5.00
2022-10-30T09:56:03.380Z,4.20
2022-10-30T09:58:43.881Z,3.97
2022-10-30T10:01:20.587Z,4.30
2022-10-30T10:03:57.969Z,4.20
2022-10-30T10:07:01.150Z,5.13
2022-10-30T10:09:53.071Z,3.65
2022-10-30T10:12:47.805Z,4.45
2022-10-30T10:15:27.320Z,3.88
2022-10-30T10:17:58.007Z,4.03
2022-10-30T10:20:37.087Z,8.30
2022-10-30T10:23:29.436Z,3.58
2022-10-30T10:26:00.359Z,2.95
2022-10-30T10:28:55.344Z,3.13
2022-10-30T10:31:40.800Z,3.78
2022-10-30T10:34:19.857Z,5.47
2022-10-30T10:36:49.991Z,4.15
2022-10-30T10:40:12.301Z,3.00
2022-10-30T10:42:51.762Z,3.25
2022-10-30T10:45:55.725Z,3.47
2022-10-30T10:49:00.551Z,3.00
2022-10-30T10:51:33.600Z,3.03
2022-10-30T10:54:56.058Z,2.55
2022-10-30T10:57:38.274Z,2.60
2022-10-30T11:00:08.802Z,2.63
2022-10-30T11:02:44.901Z,4.07
2022-10-30T11:05:38.015Z,3.35
2022-10-30T11:08:22.790Z,2.65
2022-10-30T11:11:12.807Z,3.42
2022-10-30T11:13:42.822Z,2.95
2022-10-30T11:16:36.818Z,3.47
2022-10-30T11:19:08.168Z,2.88
2022-10-30T11:21:43.675Z,3.22
2022-10-30T11:24:30.505Z,2.90
2022-10-30T11:27:17.013Z,3.10
2022-10-30T11:30:00.674Z,2.70
2022-10-30T11:32:31.684Z,3.20
2022-10-30T11:35:19.911Z,2.85
2022-10-30T11:37:52.365Z,3.40
2022-10-30T11:40:38.134Z,3.05
2022-10-30T11:43:06.104Z,3.28
2022-10-30T11:45:37.582Z,3.97
2022-10-30T11:48:27.207Z,3.38
2022-10-30T11:51:13.957Z,3.28
2022-10-30T11:53:47.350Z,3.17
2022-10-30T11:56:35.591Z,3.15
2022-10-30T11:59:05.652Z,3.10
2022-10-30T12:02:02.543Z,2.85
2022-10-30T12:04:50.408Z,3.28
2022-10-30T12:07:36.223Z,3.03
2022-10-30T12:10:04.575Z,3.30
2022-10-30T12:12:42.622Z,2.95
2022-10-30T12:15:28.390Z,3.10
2022-10-30T12:18:23.054Z,3.42
2022-10-30T12:20:54.272Z,3.20
2022-10-30T12:23:25.955Z,2.95
2022-10-30T12:25:59.039Z,3.40
2022-10-30T12:28:30.551Z,3.50
2022-10-30T12:31:00.734Z,3.38
2022-10-30T12:33:44.275Z,3.80
2022-10-30T12:36:16.762Z,5.68
2022-10-30T12:38:46.320Z,3.58
2022-10-30T12:41:46.831Z,4.90
2022-10-30T12:44:49.747Z,4.03
2022-10-30T12:47:47.608Z,4.15
2022-10-30T12:50:45.263Z,4.30
2022-10-30T12:53:51.446Z,3.28
2022-10-30T12:56:33.913Z,3.80
2022-10-30T12:59:37.834Z,4.13
2022-10-30T13:02:12.988Z,3.67
2022-10-30T13:04:47.565Z,3.53
2022-10-30T13:07:29.759Z,3.63
2022-10-30T13:10:15.776Z,3.70
2022-10-30T13:12:47.384Z,4.00
2022-10-30T13:15:20.412Z,3.70
2022-10-30T13:18:18.806Z,3.60
2022-10-30T13:20:59.100Z,3.67
2022-10-30T13:24:06.724Z,3.38
2022-10-30T13:26:44.305Z,3.33
2022-10-30T13:29:45.362Z,3.70
2022-10-30T13:32:36.843Z,4.00
2022-10-30T13:35:25.087Z,4.25
2022-10-30T13:38:01.707Z,3.63
2022-10-30T13:40:56.404Z,4.32
2022-10-30T13:43:45.404Z,3.40
2022-10-30T13:46:15.159Z,3.10
2022-10-30T13:48:53.418Z,3.45
2022-10-30T13:51:49.263Z,3.35
2022-10-30T13:54:25.476Z,3.40
2022-10-30T13:56:55.930Z,3.80
2022-10-30T13:59:28.761Z,3.75
2022-10-30T14:02:20.246Z,3.78
2022-10-30T14:05:03.998Z,3.80
2022-10-30T14:07:36.956Z,3.67
2022-10-30T14:10:20.319Z,4.20
2022-10-30T14:12:56.876Z,5.63
2022-10-30T14:15:30.693Z,5.75
2022-10-30T14:18:24.989Z,5.38
2022-10-30T14:20:54.298Z,5.78
2022-10-30T14:23:40.350Z,4.75
2022-10-30T14:26:10.792Z,4.57
2022-10-30T14:28:44.467Z,4.43
2022-10-30T14:31:17.765Z,4.10
2022-10-30T14:33:51.052Z,4.97
2022-10-30T14:36:39.833Z,5.75
2022-10-30T14:39:12.948Z,5.38
2022-10-30T14:42:01.668Z,5.10
2022-10-30T14:44:50.882Z,5.13
2022-10-30T14:47:27.052Z,4.68
2022-10-30T14:50:00.686Z,5.18
2022-10-30T14:52:49.251Z,4.95
2022-10-30T14:55:26.883Z,4.53
2022-10-30T14:58:03.203Z,4.95
2022-10-30T15:00:44.918Z,8.40
2022-10-30T15:03:54.176Z,7.50
2022-10-30T15:06:32.538Z,5.80
2022-10-30T15:09:08.709Z,5.93
2022-10-30T15:12:14.427Z,5.50
2022-10-30T15:14:53.936Z,7.22
2022-10-30T15:17:41.123Z,5.78
2022-10-30T15:20:19.024Z,6.23
2022-10-30T15:22:49.677Z,7.30
2022-10-30T15:25:20.542Z,6.47
2022-10-30T15:27:54.290Z,6.35
2022-10-30T15:30:26.571Z,5.40
2022-10-30T15:32:54.511Z,5.95
2022-10-30T15:35:47.569Z,5.25
2022-10-30T15:38:33.353Z,5.50
2022-10-30T15:41:03.350Z,6.07
2022-10-30T15:43:49.110Z,6.97
2022-10-30T15:46:16.730Z,8.27
2022-10-30T15:49:02.825Z,8.23
2022-10-30T15:51:48.690Z,8.18
2022-10-30T15:54:34.426Z,8.77
2022-10-30T15:57:42.828Z,8.65
2022-10-30T16:02:37.272Z,9.55
2022-10-30T16:05:21.623Z,9.77
2022-10-30T16:07:48.842Z,8.43
2022-10-30T16:10:19.143Z,9.77
2022-10-30T16:13:05.172Z,9.55
2022-10-30T16:15:39.401Z,8.95
2022-10-30T16:18:18.895Z,9.88
2022-10-30T16:20:53.086Z,8.75
2022-10-30T16:23:21.255Z,9.63
2022-10-30T16:25:57.685Z,9.43
2022-10-30T16:28:28.883Z,9.38
2022-10-30T16:31:05.652Z,9.57
2022-10-30T16:33:35.284Z,9.88
2022-10-30T16:36:04.738Z,9.85
2022-10-30T16:38:51.172Z,9.23
2022-10-30T16:41:24.100Z,9.63
2022-10-30T16:44:17.829Z,10.82
2022-10-30T16:46:48.603Z,11.35
2022-10-30T16:49:24.621Z,12.20
2022-10-30T16:52:14.587Z,14.32
2022-10-30T16:54:50.417Z,16.65
2022-10-30T16:57:24.333Z,23.30
2022-10-30T16:59:53.359Z,13.63
2022-10-30T17:02:23.471Z,13.40
2022-10-30T17:04:58.000Z,11.98
2022-10-30T17:07:26.981Z,15.88
2022-10-30T17:09:57.024Z,15.73
2022-10-30T17:12:25.333Z,15.40
2022-10-30T17:14:55.369Z,13.75
2022-10-30T17:17:28.690Z,12.95
2022-10-30T17:20:29.923Z,11.35
2022-10-30T17:23:13.740Z,10.40
2022-10-30T17:25:59.601Z,10.13
2022-10-30T17:28:34.729Z,10.20
2022-10-30T17:31:38.943Z,11.88
2022-10-30T17:34:18.956Z,11.38
2022-10-30T17:36:48.047Z,12.35
2022-10-30T17:42:01.292Z,11.02
2022-10-30T17:44:35.513Z,12.23
2022-10-30T17:47:17.772Z,10.70
2022-10-30T17:49:45.714Z,11.57
2022-10-30T17:52:15.579Z,10.25
2022-10-30T17:54:43.883Z,10.38
2022-10-30T17:57:12.384Z,10.63
2022-10-30T17:59:40.226Z,10.30
2022-10-30T18:02:16.268Z,9.75
2022-10-30T18:04:44.342Z,10.00
2022-10-30T18:07:13.138Z,11.27
2022-10-30T18:09:40.896Z,11.27
2022-10-30T18:12:14.005Z,11.68
2022-10-30T18:14:43.136Z,11.02
2022-10-30T18:17:11.126Z,10.70
2022-10-30T18:19:56.459Z,10.65
2022-10-30T18:22:23.839Z,11.27
2022-10-30T18:24:51.032Z,11.75
2022-10-30T18:27:18.400Z,13.48
2022-10-30T18:29:45.628Z,11.80
2022-10-30T18:32:12.967Z,13.15
2022-10-30T18:34:40.201Z,12.48
2022-10-30T18:37:25.699Z,12.80
2022-10-30T18:40:11.634Z,12.88
2022-10-30T18:42:39.291Z,12.80
2022-10-30T18:45:17.078Z,12.45
2022-10-30T18:47:44.670Z,12.95
2022-10-30T18:50:12.481Z,12.68
2022-10-30T18:52:39.930Z,11.25
2022-10-30T18:55:35.339Z,12.10
2022-10-30T18:58:04.158Z,12.68
2022-10-30T19:00:45.017Z,12.73
2022-10-30T19:03:18.625Z,14.15
2022-10-30T19:05:50.912Z,18.40
2022-10-30T19:08:18.688Z,30.10
2022-10-30T19:10:47.762Z,29.65
2022-10-30T19:13:24.608Z,24.55
2022-10-30T19:15:59.811Z,22.60
2022-10-30T19:18:28.506Z,21.00
2022-10-30T19:21:04.380Z,20.30
2022-10-30T19:23:33.655Z,19.23
2022-10-30T19:26:00.903Z,19.75
2022-10-30T19:28:30.059Z,19.02
2022-10-30T19:30:57.218Z,17.13
2022-10-30T19:33:43.786Z,16.83
2022-10-30T19:36:30.276Z,17.38
2022-10-30T19:38:57.559Z,17.08
2022-10-30T19:41:25.274Z,18.02
2022-10-30T19:43:53.689Z,17.50
2022-10-30T19:46:21.783Z,17.48
2022-10-30T19:48:58.076Z,18.30
2022-10-30T19:53:53.962Z,20.15
2022-10-30T19:56:22.050Z,21.08
2022-10-30T19:58:50.110Z,22.15
2022-10-30T20:01:17.921Z,20.23
2022-10-30T20:03:45.197Z,19.70
2022-10-30T20:06:15.331Z,17.65
2022-10-30T20:08:42.997Z,16.42
2022-10-30T20:11:10.639Z,17.35
2022-10-30T20:13:38.053Z,16.38
2022-10-30T20:16:05.988Z,16.63
2022-10-30T20:18:35.489Z,16.25
2022-10-30T20:21:08.494Z,17.63
2022-10-30T20:23:54.143Z,15.43
2022-10-30T20:26:28.245Z,15.63
2022-10-30T20:28:55.784Z,16.30
2022-10-30T20:31:23.294Z,15.75
2022-10-30T20:33:50.451Z,15.70
2022-10-30T20:36:17.701Z,14.25
2022-10-30T20:38:45.192Z,14.38
2022-10-30T20:41:30.720Z,15.23
2022-10-30T20:43:58.229Z,15.48
2022-10-30T20:46:25.841Z,15.68
2022-10-30T20:48:53.269Z,17.08
2022-10-30T20:51:21.427Z,15.73
2022-10-30T20:53:48.879Z,14.85
2022-10-30T20:56:16.042Z,14.50
2022-10-30T20:58:43.263Z,14.35
2022-10-30T21:01:11.877Z,15.60
2022-10-30T21:03:39.228Z,14.68
2022-10-30T21:06:09.944Z,14.40
2022-10-30T21:08:55.636Z,15.10
2022-10-30T21:11:41.220Z,16.30
2022-10-30T21:14:08.711Z,15.70
2022-10-30T21:16:35.873Z,16.25
2022-10-30T21:19:03.580Z,16.38
2022-10-30T21:21:30.993Z,16.13
2022-10-30T21:23:58.221Z,14.80
2022-10-30T21:26:25.357Z,15.18
2022-10-30T21:29:11.456Z,15.50
2022-10-30T21:31:38.891Z,14.90
2022-10-30T21:34:06.293Z,14.93
2022-10-30T21:36:33.558Z,15.63
2022-10-30T21:39:19.511Z,15.35
2022-10-30T21:41:46.959Z,16.35
2022-10-30T21:44:15.527Z,16.20
2022-10-30T21:46:43.102Z,16.48
2022-10-30T21:49:13.752Z,15.38
2022-10-30T21:51:59.659Z,15.73
2022-10-30T21:54:27.099Z,16.77
2022-10-30T21:56:54.395Z,16.48
2022-10-30T21:59:40.853Z,17.40
2022-10-30T22:02:15.468Z,17.02
2022-10-30T22:04:42.874Z,19.35
2022-10-30T22:07:28.527Z,17.75
2022-10-30T22:10:14.072Z,18.88
2022-10-30T22:12:41.578Z,17.92
2022-10-30T22:15:09.293Z,18.67
2022-10-30T22:17:36.545Z,18.90
2022-10-30T22:20:04.515Z,19.10
2022-10-30T22:22:32.028Z,18.60
2022-10-30T22:24:59.202Z,18.67
2022-10-30T22:27:26.639Z,18.73
2022-10-30T22:29:53.860Z,19.17
2022-10-30T22:32:23.089Z,19.17
2022-10-30T22:34:50.556Z,19.30
2022-10-30T22:37:17.695Z,18.60
2022-10-30T22:39:44.979Z,18.30
2022-10-30T22:42:12.426Z,18.80
2022-10-30T22:44:57.988Z,18.02
2022-10-30T22:47:25.386Z,20.10
2022-10-30T22:49:52.547Z,19.30
2022-10-30T22:52:19.694Z,21.02
2022-10-30T22:54:47.231Z,20.52
2022-10-30T22:57:14.483Z,18.90
2022-10-30T22:59:42.247Z,20.95
2022-10-30T23:02:09.656Z,22.15
2022-10-30T23:04:37.041Z,21.85
2022-10-30T23:07:04.451Z,23.33
2022-10-30T23:09:31.706Z,21.20
2022-10-30T23:11:59.201Z,19.95
2022-10-30T23:14:26.469Z,23.13
2022-10-30T23:16:53.914Z,23.15
2022-10-30T23:19:21.216Z,25.02
2022-10-30T23:21:48.648Z,23.60
2022-10-30T23:24:15.866Z,23.95
2022-10-30T23:26:43.381Z,21.20
2022-10-30T23:29:10.605Z,23.73
2022-10-30T23:31:40.565Z,28.00
2022-10-30T23:34:10.638Z,23.65
2022-10-30T23:36:38.618Z,26.88
2022-10-30T23:39:08.644Z,30.88
2022-10-30T23:41:36.263Z,28.25
2022-10-30T23:44:06.747Z,27.73
2022-10-30T23:46:35.863Z,29.30
2022-10-30T23:49:04.353Z,28.92
2022-10-30T23:51:32.175Z,29.30
2022-10-30T23:53:59.663Z,26.58
2022-10-30T23:56:29.481Z,26.98
2022-10-30T23:58:57.650Z,26.17
